Terminal Aerodrome Forecast
Issued by NWS Austin/San Antonio, TX

Home | Current Version | Previous Version | Text Only | Print | Product List | Glossary On
Versions: 1 2 3 4 5 6 7 8 9 10 11 12 13
164
FTUS44 KEWX 251744
TAFAUS
TAF
KAUS 251744Z 2518/2624 19014KT P6SM OVC020
     FM251830 18012G22KT P6SM SCT025 BKN040
     FM252300 17012KT P6SM SCT250
     FM260400 18012KT P6SM BKN012
     FM260500 18015G25KT P6SM OVC008
     FM261500 26020G30KT P6SM SKC=

USA.gov is the U.S. government's official web portal to all federal, state and local government web resources and services.